Waxahachie, TX

7:59 PM CST on January 16, 2017 (GMT -0600)
Midlothian

Weather History for KJWY - March, 2013

Change the Weather History Date:

Saturday, March 30, 2013

  Actual Average (KRBD) Record (KRBD)
Temperature  
Mean Temperature 64 °F -  
Max Temperature 74 °F 69 °F 84 °F (1998)
Min Temperature 53 °F 50 °F 34 °F (2003)
Degree Days  
Heating Degree Days 2    
Growing Degree Days 14 (Base 50)    
Moisture  
Dew Point 58 °F    
Average Humidity 77    
Maximum Humidity 96    
Minimum Humidity 61    
Precipitation  
Precipitation 0.44 in - - ()
Sea Level Pressure  
Sea Level Pressure 30.01 in    
Wind  
Wind Speed 9 mph (SSE)    
Max Wind Speed 17 mph    
Max Gust Speed 29 mph    
Visibility 10 miles    
Events Rain    
Averages and records for this station are not official NWS values.
T = Trace of Precipitation, MM = Missing Value Source: NWS Daily Summary

Daily Weather History Graph

Daily Weather History Graph

Search for Another Location

Airport or City:

Trip Planner

Search our weather history database for the weather conditions in past years. The results will help you decide how hot, cold, wet, or windy it might be!

Date:

Astronomy

Mar. 30, 2013 Rise Set
Actual Time 7:18 AM CDT 7:46 PM CDT
Civil Twilight 6:53 AM CDT 8:11 PM CDT
Nautical Twilight 6:24 AM CDT 8:40 PM CDT
Astronomical Twilight 5:55 AM CDT 9:09 PM CDT
Moon 11:40 PM CDT (3/30) 9:26 AM CDT (3/30)
Length of Visible Light 13h 17m
Length of Day
12h 28m
Waning Gibbous, 86% of the Moon is Illuminated
Mar 30
Waning Gibbous
Apr 2
Last Quarter
Apr 10
New
Apr 18
First Quarter
Apr 25
Full

Hourly Weather History & Observations

Time (CDT) Temp. Dew Point Humidity Pressure Visibility Wind Dir Wind Speed Gust Speed Precip Events Conditions
12:15 AM 65.3 °F 56.3 °F 73% 30.06 in 10.0 mi SSE 10.4 mph 17.3 mph N/A Rain Light Rain
12:35 AM 64.8 °F 56.3 °F 74% 30.06 in 10.0 mi SSE 9.2 mph - N/A   Scattered Clouds
12:55 AM 64.8 °F 56.1 °F 74% 30.06 in 10.0 mi SSE 12.7 mph - N/A   Scattered Clouds
1:35 AM 63.7 °F 56.3 °F 77% 30.08 in 10.0 mi SSE 6.9 mph - N/A   Scattered Clouds
1:55 AM 64.4 °F 56.3 °F 75% 30.08 in 10.0 mi SSE 8.1 mph - N/A   Scattered Clouds
2:15 AM 64.2 °F 56.3 °F 75% 30.09 in 10.0 mi South 9.2 mph - N/A   Mostly Cloudy
2:35 AM 64.0 °F 56.3 °F 76% 30.08 in 10.0 mi South 9.2 mph - N/A   Overcast
2:55 AM 61.0 °F 52.5 °F 74% 30.15 in 5.0 mi West 17.3 mph 28.8 mph 0.20 in Rain Heavy Rain
3:15 AM 55.4 °F 52.3 °F 89% 30.13 in 4.0 mi WSW 8.1 mph - 0.16 in Rain Rain
3:35 AM 55.8 °F 53.6 °F 92% 30.11 in 7.0 mi SSW 6.9 mph - 0.20 in Rain Light Rain
3:55 AM 55.4 °F 53.6 °F 94% 30.09 in 7.0 mi SSE 3.5 mph - 0.23 in Rain Rain
4:15 AM 55.4 °F 54.0 °F 95% 30.07 in 10.0 mi South 9.2 mph - 0.01 in Rain Light Rain
4:35 AM 55.4 °F 53.6 °F 94% 30.05 in 10.0 mi SSE 5.8 mph - 0.01 in   Mostly Cloudy
4:55 AM 55.4 °F 53.8 °F 94% 30.00 in 10.0 mi SSE 9.2 mph - 0.01 in   Scattered Clouds
5:15 AM 56.1 °F 54.3 °F 94% 30.03 in 10.0 mi North 3.5 mph - N/A   Scattered Clouds
5:35 AM 54.7 °F 53.1 °F 94% 30.03 in 10.0 mi Calm Calm - N/A   Clear
5:55 AM 53.8 °F 52.5 °F 95% 30.04 in 10.0 mi Calm Calm - N/A   Clear
6:15 AM 53.6 °F 52.3 °F 95% 30.05 in 10.0 mi NE 4.6 mph - N/A   Scattered Clouds
6:35 AM 54.9 °F 53.8 °F 96% 30.06 in 10.0 mi NE 5.8 mph - N/A   Mostly Cloudy
6:55 AM 55.8 °F 54.5 °F 96% 30.06 in 10.0 mi ENE 4.6 mph - N/A   Overcast
7:15 AM 56.3 °F 54.9 °F 95% 30.06 in 10.0 mi East 3.5 mph - N/A   Overcast
7:35 AM 56.3 °F 55.2 °F 96% 30.06 in 5.0 mi East 3.5 mph - N/A   Overcast
7:55 AM 56.8 °F 55.6 °F 96% 30.06 in 7.0 mi ESE 3.5 mph - N/A   Overcast
8:15 AM 57.4 °F 56.3 °F 96% 30.06 in 10.0 mi East 3.5 mph - N/A   Overcast
8:35 AM 58.5 °F 57.2 °F 96% 30.05 in 10.0 mi SE 5.8 mph - N/A   Overcast
8:55 AM 60.1 °F 58.5 °F 94% 30.05 in 10.0 mi SSE 8.1 mph - N/A   Mostly Cloudy
9:15 AM 61.5 °F 59.2 °F 92% 30.05 in 10.0 mi SSE 8.1 mph - N/A   Mostly Cloudy
9:35 AM 62.6 °F 60.1 °F 91% 30.05 in 7.0 mi SSE 9.2 mph - N/A   Overcast
9:55 AM 63.5 °F 60.3 °F 89% 30.06 in 7.0 mi South 12.7 mph - N/A   Overcast
10:15 AM 63.9 °F 60.1 °F 87% 30.05 in 10.0 mi South 9.2 mph 17.3 mph N/A   Overcast
10:35 AM 65.1 °F 60.6 °F 85% 30.05 in 10.0 mi South 11.5 mph - N/A   Overcast
10:55 AM 67.3 °F 61.2 °F 81% 30.05 in 10.0 mi South 12.7 mph - N/A   Overcast
11:15 AM 68.5 °F 60.3 °F 75% 30.05 in 10.0 mi SW 15.0 mph 20.7 mph N/A   Overcast
11:35 AM 69.1 °F 60.6 °F 74% 30.05 in 10.0 mi SSW 11.5 mph 16.1 mph N/A   Overcast
11:55 AM 69.1 °F 60.8 °F 75% 30.05 in 10.0 mi SSW 11.5 mph - N/A   Overcast
12:15 PM 70.2 °F 60.8 °F 72% 30.05 in 10.0 mi SSW 13.8 mph - N/A   Overcast
12:35 PM 72.1 °F 59.7 °F 65% 30.04 in 10.0 mi SW 11.5 mph 17.3 mph N/A   Overcast
12:55 PM 71.6 °F 60.1 °F 67% 30.04 in 10.0 mi SSW 12.7 mph - N/A   Overcast
1:15 PM 72.3 °F 59.5 °F 64% 30.03 in 10.0 mi SSW 15.0 mph - N/A   Mostly Cloudy
1:35 PM 73.6 °F 59.9 °F 62% 30.01 in 10.0 mi SSW 11.5 mph 17.3 mph N/A   Scattered Clouds
1:55 PM 74.5 °F 60.4 °F 61% 30.00 in 10.0 mi SSW 13.8 mph - N/A   Scattered Clouds
2:15 PM 72.7 °F 59.9 °F 64% 29.99 in 10.0 mi South 11.5 mph 17.3 mph N/A   Overcast
2:35 PM 72.0 °F 60.1 °F 66% 29.99 in 10.0 mi South 12.7 mph - N/A   Overcast
2:55 PM 72.7 °F 60.1 °F 64% 29.98 in 10.0 mi South 13.8 mph - N/A   Overcast
3:15 PM 73.9 °F 60.6 °F 63% 29.97 in 10.0 mi South 10.4 mph 17.3 mph N/A   Mostly Cloudy
3:35 PM 73.4 °F 60.3 °F 63% 29.96 in 10.0 mi South 11.5 mph - N/A   Mostly Cloudy
3:55 PM 73.6 °F 60.4 °F 63% 29.95 in 10.0 mi South 12.7 mph 17.3 mph N/A   Overcast
4:15 PM 74.1 °F 60.4 °F 62% 29.94 in 10.0 mi South 12.7 mph - N/A   Overcast
4:35 PM 73.9 °F 60.1 °F 62% 29.94 in 10.0 mi South 10.4 mph - N/A   Overcast
4:55 PM 72.9 °F 60.4 °F 65% 29.94 in 10.0 mi South 10.4 mph - N/A   Overcast
5:15 PM 73.2 °F 59.9 °F 63% 29.94 in 10.0 mi South 10.4 mph - N/A   Overcast
5:35 PM 73.0 °F 59.9 °F 63% 29.93 in 10.0 mi South 9.2 mph - N/A   Overcast
5:55 PM 74.1 °F 61.2 °F 64% 29.92 in 10.0 mi SSE 6.9 mph - N/A   Overcast
6:15 PM 73.0 °F 60.1 °F 64% 29.92 in 10.0 mi SSE 9.2 mph - N/A   Overcast
6:35 PM 73.0 °F 60.3 °F 64% 29.92 in 10.0 mi South 6.9 mph - N/A   Overcast
6:55 PM 73.6 °F 60.6 °F 64% 29.92 in 10.0 mi SSE 6.9 mph - N/A   Mostly Cloudy
7:15 PM 72.5 °F 60.1 °F 65% 29.92 in 10.0 mi SE 4.6 mph - N/A   Overcast
7:35 PM 71.8 °F 60.1 °F 67% 29.92 in 10.0 mi SE 3.5 mph - N/A   Overcast
7:55 PM 70.9 °F 59.9 °F 68% 29.91 in 10.0 mi SE 5.8 mph - N/A   Mostly Cloudy
8:15 PM 69.8 °F 59.9 °F 71% 29.92 in 10.0 mi ESE 4.6 mph - N/A   Scattered Clouds
8:35 PM 68.9 °F 60.1 °F 73% 29.92 in 10.0 mi SE 4.6 mph - N/A   Clear
8:55 PM 68.2 °F 60.3 °F 76% 29.92 in 10.0 mi ESE 3.5 mph - N/A   Clear
9:15 PM 68.0 °F 59.9 °F 75% 29.92 in 10.0 mi SE 4.6 mph - N/A   Clear
9:35 PM 67.5 °F 59.4 °F 75% 29.92 in 10.0 mi SE 4.6 mph - N/A   Clear
9:55 PM 67.5 °F 59.2 °F 75% 29.92 in 10.0 mi SE 5.8 mph - N/A   Clear
10:35 PM 66.6 °F 59.2 °F 77% 29.92 in 10.0 mi SSE 5.8 mph - N/A   Clear
10:55 PM 66.2 °F 59.0 °F 78% 29.92 in 10.0 mi SE 4.6 mph - N/A   Clear
11:15 PM 66.2 °F 58.8 °F 77% 29.92 in 10.0 mi SE 4.6 mph - N/A   Clear
11:35 PM 65.7 °F 58.3 °F 77% 29.92 in 10.0 mi SE 5.8 mph - N/A   Clear
11:55 PM 65.8 °F 58.3 °F 77% 29.92 in 10.0 mi SE 4.6 mph - N/A   Clear